Time;durP1;ratioP1;P1;durP2;ratioP2;P2;SDS_P1;SDS_P2;PMS_P1;PMS_P2;Temp;Humidity;BMP_temperature;BMP_pressure;BME280_temperature;BME280_humidity;BME280_pressure;Samples;Min_cycle;Max_cycle;Signal;HPM_P1;HPM_P2
2022/05/04 00:01:49;;;;;;;10.75;6.28;;;;;;;10.10;74.74;101599.69;4994375;28;20041;-83
2022/05/04 00:04:15;;;;;;;14.23;5.72;;;;;;;10.04;75.03;101597.63;4986327;28;20034;-84
2022/05/04 00:06:40;;;;;;;13.35;6.53;;;;;;;9.99;75.30;101598.03;4992713;28;20385;-83
2022/05/04 00:09:06;;;;;;;14.60;5.63;;;;;;;9.95;75.35;101594.06;4997465;28;20046;-83
2022/05/04 00:11:31;;;;;;;13.60;6.95;;;;;;;9.91;75.10;101593.50;5081136;28;20115;-84
2022/05/04 00:13:57;;;;;;;16.95;6.28;;;;;;;9.85;74.97;101598.38;5023864;28;20043;-84
2022/05/04 00:16:22;;;;;;;15.10;7.13;;;;;;;9.78;75.50;101598.09;5077334;28;20042;-83
2022/05/04 00:18:48;;;;;;;11.57;6.80;;;;;;;9.70;75.47;101609.13;4991600;28;20026;-83
2022/05/04 00:21:13;;;;;;;20.55;8.13;;;;;;;9.61;75.68;101603.91;4996167;28;20038;-83
2022/05/04 00:23:40;;;;;;;24.08;9.30;;;;;;;9.61;75.48;101609.09;5019635;28;20569;-83
2022/05/04 00:26:05;;;;;;;20.42;9.65;;;;;;;9.55;75.65;101602.66;5011724;28;20018;-83
2022/05/04 00:28:31;;;;;;;19.17;9.30;;;;;;;9.48;76.03;101606.69;5008970;28;20108;-83
2022/05/04 00:30:56;;;;;;;21.15;10.95;;;;;;;9.47;75.74;101600.69;4998341;28;20112;-82
2022/05/04 00:33:22;;;;;;;20.02;10.60;;;;;;;9.42;76.25;101597.69;5095201;27;20094;-83
2022/05/04 00:35:47;;;;;;;30.15;11.75;;;;;;;9.42;76.04;101604.59;4984811;28;20427;-83
2022/05/04 00:38:13;;;;;;;26.23;11.88;;;;;;;9.40;75.83;101598.75;5002195;28;20538;-83
2022/05/04 00:40:38;;;;;;;24.15;10.10;;;;;;;9.34;76.64;101593.16;5008844;28;20042;-83
2022/05/04 00:43:05;;;;;;;21.40;9.93;;;;;;;9.30;76.14;101604.69;4995472;28;20022;-83
2022/05/04 00:45:31;;;;;;;21.25;8.65;;;;;;;9.27;75.92;101597.19;4997907;28;20371;-84
2022/05/04 00:47:56;;;;;;;25.38;8.77;;;;;;;9.16;76.33;101594.69;5079411;28;20034;-82
2022/05/04 00:50:22;;;;;;;25.48;8.70;;;;;;;9.15;76.61;101596.47;5080883;28;20033;-83
2022/05/04 00:52:49;;;;;;;14.55;7.57;;;;;;;9.15;76.46;101593.03;5009319;28;20034;-84
2022/05/04 00:55:18;;;;;;;17.75;7.65;;;;;;;9.08;76.94;101597.91;5011003;28;20049;-83
2022/05/04 01:00:29;;;;;;;16.88;7.63;;;;;;;9.07;77.09;101596.25;5022785;28;20033;-82
2022/05/04 01:02:55;;;;;;;20.13;7.60;;;;;;;9.09;77.49;101591.75;4997101;28;20068;-83
2022/05/04 01:05:20;;;;;;;15.80;7.32;;;;;;;9.10;77.55;101593.41;4995260;28;20117;-83
2022/05/04 01:07:47;;;;;;;17.30;7.57;;;;;;;9.09;77.39;101589.19;5078114;28;20073;-83
2022/05/04 01:10:14;;;;;;;20.38;7.25;;;;;;;9.10;77.21;101596.00;5011151;28;20038;-83
2022/05/04 01:12:51;;;;;;;14.20;7.65;;;;;;;9.05;77.40;101595.56;5095667;27;20478;-83
2022/05/04 01:15:19;;;;;;;14.90;7.88;;;;;;;9.04;77.56;101593.94;4992064;28;20653;-83
2022/05/04 01:17:48;;;;;;;14.30;6.93;;;;;;;8.96;77.70;101591.94;4990478;28;20029;-83
2022/05/04 01:20:15;;;;;;;22.02;7.88;;;;;;;8.98;77.38;101594.41;5006592;28;20399;-84
2022/05/04 01:22:40;;;;;;;17.98;8.07;;;;;;;8.90;77.90;101602.00;5080503;28;20017;-82
2022/05/04 01:25:06;;;;;;;19.48;7.82;;;;;;;8.86;78.11;101600.63;4994517;28;20084;-84
2022/05/04 01:27:32;;;;;;;18.75;7.35;;;;;;;8.84;78.43;101599.91;5077818;28;20025;-83
2022/05/04 01:29:58;;;;;;;16.23;8.23;;;;;;;8.83;78.51;101595.69;5077510;28;20439;-83
2022/05/04 01:32:24;;;;;;;26.15;9.32;;;;;;;8.82;78.49;101599.22;5011023;28;20034;-83
2022/05/04 01:34:50;;;;;;;17.10;7.75;;;;;;;8.79;78.74;101596.88;5078074;28;20039;-84
2022/05/04 01:37:15;;;;;;;22.02;7.90;;;;;;;8.77;78.46;101591.81;4996000;28;20034;-82
2022/05/04 01:39:41;;;;;;;17.33;7.63;;;;;;;8.73;78.44;101593.03;4983779;28;20037;-83
2022/05/04 01:42:13;;;;;;;16.00;7.50;;;;;;;8.73;78.63;101596.41;5007464;28;20115;-83
2022/05/04 01:44:40;;;;;;;19.50;7.87;;;;;;;8.72;78.47;101591.38;4999802;28;20261;-83
2022/05/04 01:47:06;;;;;;;21.02;8.27;;;;;;;8.69;78.23;101604.56;5012095;28;20300;-83
2022/05/04 01:49:31;;;;;;;16.65;7.65;;;;;;;8.63;78.64;101595.53;5076265;28;20045;-83
2022/05/04 01:51:57;;;;;;;25.75;8.30;;;;;;;8.61;78.81;101600.00;4981637;28;20038;-83
2022/05/04 01:54:22;;;;;;;24.67;8.55;;;;;;;8.65;78.15;101606.56;4996837;28;20046;-83
2022/05/04 01:56:48;;;;;;;18.48;8.40;;;;;;;8.55;78.96;101596.16;5002755;28;20293;-83
2022/05/04 01:59:13;;;;;;;22.73;8.27;;;;;;;8.53;78.93;101605.81;4983109;28;20482;-83
2022/05/04 02:01:39;;;;;;;18.95;8.07;;;;;;;8.49;79.26;101601.78;4980798;28;20062;-84
2022/05/04 02:04:05;;;;;;;15.68;8.30;;;;;;;8.48;79.52;101599.34;4994534;28;20505;-83
2022/05/04 02:06:32;;;;;;;19.05;8.13;;;;;;;8.51;79.17;101601.69;5077534;28;20036;-83
2022/05/04 02:08:58;;;;;;;20.80;8.48;;;;;;;8.49;78.93;101598.41;4983346;28;20040;-83
2022/05/04 02:11:24;;;;;;;20.50;7.97;;;;;;;8.37;79.63;101597.59;4978840;28;20049;-83
2022/05/04 02:13:50;;;;;;;23.02;8.45;;;;;;;8.34;79.53;101598.66;4998438;28;20502;-82
2022/05/04 02:16:16;;;;;;;18.85;7.78;;;;;;;8.30;79.73;101599.81;5008661;28;20041;-83
2022/05/04 02:18:42;;;;;;;22.83;7.60;;;;;;;8.28;79.93;101595.72;5000270;28;20102;-83
2022/05/04 02:21:09;;;;;;;18.75;8.90;;;;;;;8.30;79.78;101596.44;4997125;28;20044;-83
2022/05/04 02:23:35;;;;;;;20.33;8.40;;;;;;;8.25;80.03;101595.97;5011649;28;20030;-83
2022/05/04 02:26:00;;;;;;;17.17;7.72;;;;;;;8.22;80.00;101591.88;5092071;27;20401;-83
2022/05/04 02:28:26;;;;;;;16.52;7.50;;;;;;;8.28;79.73;101595.72;5014155;28;20045;-82
2022/05/04 02:30:51;;;;;;;21.17;8.13;;;;;;;8.22;79.93;101589.28;5005896;28;20030;-83
2022/05/04 02:33:16;;;;;;;25.00;8.07;;;;;;;8.17;79.93;101588.81;4975721;28;20087;-83
2022/05/04 02:38:27;;;;;;;21.45;8.52;;;;;;;8.15;79.90;101588.13;5017631;28;20041;-83
2022/05/04 02:40:52;;;;;;;19.27;7.28;;;;;;;8.07;80.52;101583.56;5021487;28;20034;-83
2022/05/04 02:43:19;;;;;;;13.32;7.47;;;;;;;8.04;80.54;101583.78;4974112;28;20511;-82
2022/05/04 02:45:44;;;;;;;17.65;8.50;;;;;;;8.05;80.85;101584.63;4990873;28;20099;-83
2022/05/04 02:48:10;;;;;;;20.60;7.43;;;;;;;8.05;80.43;101585.44;5075290;28;20470;-83
2022/05/04 02:50:36;;;;;;;15.30;6.82;;;;;;;8.02;80.86;101590.03;5101454;28;20120;-83
2022/05/04 02:53:02;;;;;;;17.00;7.80;;;;;;;8.02;80.85;101583.09;4982095;28;20219;-83
2022/05/04 02:55:27;;;;;;;21.40;7.18;;;;;;;7.99;80.87;101575.59;4977610;28;20462;-83
2022/05/04 02:57:53;;;;;;;19.25;7.55;;;;;;;8.04;80.71;101586.38;4993247;28;20034;-85
2022/05/04 03:00:19;;;;;;;16.85;7.57;;;;;;;7.96;80.81;101586.97;4989633;28;20398;-82
2022/05/04 03:02:46;;;;;;;19.15;7.85;;;;;;;7.93;80.76;101578.63;4989213;28;20030;-83
2022/05/04 03:05:13;;;;;;;23.70;8.40;;;;;;;7.90;80.84;101579.72;5001869;28;20029;-83
2022/05/04 03:07:38;;;;;;;22.55;8.27;;;;;;;7.90;80.72;101581.47;5000906;28;20044;-83
2022/05/04 03:10:05;;;;;;;18.42;8.10;;;;;;;7.88;80.88;101585.94;4998047;28;20038;-84
2022/05/04 03:12:31;;;;;;;24.83;8.20;;;;;;;7.83;81.01;101585.47;4982610;28;20054;-83
2022/05/04 03:14:56;;;;;;;18.30;7.45;;;;;;;7.77;81.36;101586.78;4997206;28;20473;-84
2022/05/04 03:17:22;;;;;;;23.17;8.68;;;;;;;7.79;81.11;101582.31;4980215;28;20034;-83
2022/05/04 03:19:48;;;;;;;18.73;7.70;;;;;;;7.72;81.16;101592.31;5095861;28;20734;-83
2022/05/04 03:22:14;;;;;;;16.85;7.38;;;;;;;7.73;81.21;101593.13;5009938;28;20072;-83
2022/05/04 03:24:40;;;;;;;20.00;7.75;;;;;;;7.74;80.81;101587.84;5017894;28;20051;-83
2022/05/04 03:27:07;;;;;;;17.80;7.78;;;;;;;7.72;80.91;101583.72;4975769;28;22791;-83
2022/05/04 03:29:33;;;;;;;15.15;7.18;;;;;;;7.68;80.93;101592.63;4993298;28;20026;-82
2022/05/04 03:31:58;;;;;;;20.00;7.30;;;;;;;7.71;80.90;101589.84;4980980;28;20634;-83
2022/05/04 03:34:24;;;;;;;22.52;7.70;;;;;;;7.66;81.45;101584.19;5015593;28;20064;-83
2022/05/04 03:36:49;;;;;;;17.48;7.07;;;;;;;7.65;80.85;101585.13;4984728;28;20033;-83
2022/05/04 03:39:15;;;;;;;18.73;7.63;;;;;;;7.59;81.28;101583.81;4994168;28;20041;-82
2022/05/04 03:41:41;;;;;;;18.85;7.72;;;;;;;7.56;80.99;101587.47;5079820;28;20030;-83
2022/05/04 03:44:06;;;;;;;20.08;7.70;;;;;;;7.54;81.16;101581.63;4996049;28;20393;-83
2022/05/04 03:46:42;;;;;;;13.52;7.22;;;;;;;7.46;81.52;101583.97;4995125;28;20034;-83
2022/05/04 03:49:08;;;;;;;18.63;7.68;;;;;;;7.44;81.52;101583.25;5006047;28;20498;-83
2022/05/04 03:51:34;;;;;;;19.55;8.40;;;;;;;7.44;81.91;101582.41;4992977;28;20038;-84
2022/05/04 03:54:00;;;;;;;24.50;7.65;;;;;;;7.42;82.14;101585.09;5005526;28;20169;-83
2022/05/04 03:56:25;;;;;;;19.42;7.53;;;;;;;7.42;82.11;101582.53;4993157;28;20082;-83
2022/05/04 03:58:51;;;;;;;22.80;8.50;;;;;;;7.39;81.68;101585.38;4980971;28;20026;-82
2022/05/04 04:01:20;;;;;;;21.52;8.65;;;;;;;7.37;81.67;101589.81;5078242;28;20061;-82
2022/05/04 04:03:46;;;;;;;21.58;8.07;;;;;;;7.39;81.16;101593.09;5015041;28;20026;-84
2022/05/04 04:06:11;;;;;;;14.95;7.32;;;;;;;7.33;81.53;101596.97;5078669;28;20537;-83
2022/05/04 04:08:37;;;;;;;22.63;8.10;;;;;;;7.32;81.51;101592.72;5089194;27;20029;-83
2022/05/04 04:11:03;;;;;;;25.13;8.20;;;;;;;7.40;81.33;101597.31;4993577;28;20033;-83
2022/05/04 04:13:29;;;;;;;17.60;7.57;;;;;;;7.36;81.73;101598.47;4993879;28;20057;-83
2022/05/04 04:15:55;;;;;;;21.98;8.43;;;;;;;7.35;81.05;101597.66;4995111;28;20059;-83
2022/05/04 04:18:22;;;;;;;15.93;7.25;;;;;;;7.29;81.66;101589.56;5010928;28;20461;-83
2022/05/04 04:23:32;;;;;;;23.00;7.90;;;;;;;7.26;81.53;101600.13;5092854;27;20051;-83
2022/05/04 04:26:04;;;;;;;23.75;7.82;;;;;;;7.21;81.71;101605.59;4999004;28;20026;-83
2022/05/04 04:28:30;;;;;;;20.17;7.90;;;;;;;7.25;81.42;101601.03;4989714;28;20041;-83
2022/05/04 04:30:55;;;;;;;19.65;7.93;;;;;;;7.27;81.32;101601.75;4988153;28;20039;-83
2022/05/04 04:33:26;;;;;;;19.38;8.25;;;;;;;7.22;81.24;101594.38;4984196;28;20018;-83
2022/05/04 04:35:52;;;;;;;28.45;9.88;;;;;;;7.27;81.38;101601.75;5095202;28;20034;-85
2022/05/04 04:38:18;;;;;;;22.10;8.27;;;;;;;7.28;80.90;101595.66;4996603;28;20036;-84
2022/05/04 04:40:43;;;;;;;23.92;7.75;;;;;;;7.29;80.69;101594.72;5013064;28;20037;-84
2022/05/04 04:43:09;;;;;;;24.17;8.18;;;;;;;7.24;81.05;101602.00;5005510;28;20713;-83
2022/05/04 04:45:34;;;;;;;26.52;8.63;;;;;;;7.25;81.55;101604.44;5008377;28;20032;-84
2022/05/04 04:48:00;;;;;;;16.27;7.13;;;;;;;7.27;81.43;101605.16;5087620;28;20018;-84
2022/05/04 04:50:25;;;;;;;19.02;8.13;;;;;;;7.27;81.41;101605.16;5003759;28;20040;-83
2022/05/04 04:52:51;;;;;;;27.75;7.55;;;;;;;7.28;81.63;101608.56;5002052;28;20534;-83
2022/05/04 04:55:17;;;;;;;20.17;8.23;;;;;;;7.26;81.64;101606.09;5005324;28;20045;-83
2022/05/04 04:57:43;;;;;;;27.02;7.70;;;;;;;7.34;81.40;101598.59;5004385;28;20022;-84
2022/05/04 05:00:09;;;;;;;23.50;7.28;;;;;;;7.37;81.24;101607.88;5005020;28;20046;-83
2022/05/04 05:02:35;;;;;;;19.73;7.20;;;;;;;7.43;81.01;101604.81;4989358;28;20025;-83
2022/05/04 05:05:04;;;;;;;25.60;8.85;;;;;;;7.47;80.83;101608.81;5085051;28;20034;-84
2022/05/04 05:07:30;;;;;;;22.55;8.38;;;;;;;7.44;80.41;101603.91;5017971;28;20095;-83
2022/05/04 05:09:56;;;;;;;28.42;7.75;;;;;;;7.47;80.21;101600.25;4988170;28;20029;-84
2022/05/04 05:12:23;;;;;;;23.08;8.02;;;;;;;7.53;79.91;101605.75;5000316;28;20468;-84
2022/05/04 05:17:34;;;;;;;20.55;7.93;;;;;;;7.63;79.99;101605.91;5004888;28;20101;-84
2022/05/04 05:19:59;;;;;;;28.45;8.10;;;;;;;7.66;79.47;101607.44;5016122;28;20038;-84
2022/05/04 05:22:25;;;;;;;29.98;8.63;;;;;;;7.77;79.35;101608.25;5010155;28;20037;-84
2022/05/04 05:24:50;;;;;;;23.23;8.35;;;;;;;7.84;79.15;101616.34;5005675;28;20041;-84
2022/05/04 05:27:16;;;;;;;25.25;8.10;;;;;;;7.79;78.85;101608.13;5021186;28;20414;-84
2022/05/04 05:29:41;;;;;;;29.70;8.00;;;;;;;7.87;78.72;101599.78;5018860;28;20034;-84
2022/05/04 05:32:07;;;;;;;17.42;8.45;;;;;;;7.98;78.61;101600.59;5001631;28;20033;-83
2022/05/04 05:34:34;;;;;;;23.15;7.90;;;;;;;8.10;77.82;101600.56;5095204;28;20026;-84
2022/05/04 05:37:00;;;;;;;25.30;8.32;;;;;;;8.11;77.30;101600.47;5033168;28;20041;-84
2022/05/04 05:39:25;;;;;;;27.17;8.63;;;;;;;8.15;77.75;101598.47;5005891;28;20474;-83
2022/05/04 05:41:51;;;;;;;21.42;8.38;;;;;;;8.24;77.56;101599.50;5005783;28;20022;-85
2022/05/04 05:44:16;;;;;;;20.52;7.53;;;;;;;8.36;76.99;101601.94;5000282;28;20048;-83
2022/05/04 05:46:42;;;;;;;22.48;8.07;;;;;;;8.44;76.34;101605.69;4999276;28;20042;-83
2022/05/04 05:49:07;;;;;;;19.95;8.40;;;;;;;8.45;76.43;101604.75;5001693;28;20062;-83
2022/05/04 05:51:33;;;;;;;17.85;6.93;;;;;;;8.50;76.66;101611.22;4988877;28;20486;-83
2022/05/04 05:53:58;;;;;;;22.40;8.55;;;;;;;8.58;76.54;101603.66;4986341;28;20406;-84
2022/05/04 05:56:24;;;;;;;35.53;9.25;;;;;;;8.53;75.82;101608.38;4988125;28;20034;-83
2022/05/04 05:58:49;;;;;;;23.63;8.55;;;;;;;8.62;75.85;101608.59;4982567;28;20041;-83
2022/05/04 06:01:18;;;;;;;30.27;8.55;;;;;;;8.77;75.99;101608.16;4977875;28;20565;-83
2022/05/04 06:03:43;;;;;;;23.50;8.88;;;;;;;8.89;75.27;101605.50;5076018;28;20094;-82
2022/05/04 06:06:09;;;;;;;26.83;9.55;;;;;;;9.15;74.16;101603.38;4994890;28;20033;-83
2022/05/04 06:08:34;;;;;;;27.70;8.55;;;;;;;9.55;73.05;101602.66;5009204;28;20031;-83
2022/05/04 06:11:00;;;;;;;21.20;8.55;;;;;;;9.78;71.79;101602.47;4973324;28;20756;-82
2022/05/04 06:13:25;;;;;;;28.55;8.50;;;;;;;9.96;70.41;101595.69;5017662;28;20026;-83
2022/05/04 06:15:51;;;;;;;25.67;8.75;;;;;;;10.26;69.69;101599.97;5010839;28;20044;-84
2022/05/04 06:18:16;;;;;;;27.38;9.13;;;;;;;10.29;69.48;101602.31;5013466;28;20045;-83
2022/05/04 06:20:42;;;;;;;25.33;9.05;;;;;;;10.18;69.70;101601.63;5004313;28;20041;-83
2022/05/04 06:23:08;;;;;;;29.80;9.60;;;;;;;10.12;70.39;101606.38;5081299;28;20094;-82
2022/05/04 06:25:35;;;;;;;28.25;8.77;;;;;;;9.86;70.92;101603.44;5003906;28;20037;-83
2022/05/04 06:28:01;;;;;;;26.23;9.40;;;;;;;9.79;71.21;101607.50;5013322;28;20035;-84
2022/05/04 06:35:54;;;;;;;29.98;9.57;;;;;;;10.62;68.90;101621.03;5011201;28;20037;-83
2022/05/04 06:38:20;;;;;;;27.90;10.45;;;;;;;10.93;67.60;101618.31;5075777;28;20033;-83
2022/05/04 06:40:45;;;;;;;23.60;9.30;;;;;;;10.88;66.24;101620.50;4994872;28;20034;-83
2022/05/04 06:43:10;;;;;;;29.08;9.48;;;;;;;10.93;67.09;101626.13;5011891;28;20030;-83
2022/05/04 06:45:36;;;;;;;17.73;8.68;;;;;;;11.01;66.89;101626.22;5008637;28;20045;-85
2022/05/04 06:48:02;;;;;;;38.25;15.50;;;;;;;10.97;66.53;101629.25;4996218;28;20093;-83
2022/05/04 06:50:28;;;;;;;18.17;7.88;;;;;;;11.05;66.94;101629.38;4998488;28;20026;-83
2022/05/04 06:52:54;;;;;;;25.00;8.80;;;;;;;11.10;66.50;101619.41;5078623;28;20022;-85
2022/05/04 06:55:20;;;;;;;22.42;8.43;;;;;;;11.30;65.62;101617.56;4983051;28;20044;-83
2022/05/04 06:57:45;;;;;;;18.33;7.38;;;;;;;11.75;65.46;101623.84;4999607;28;20058;-83
2022/05/04 07:00:11;;;;;;;25.80;8.38;;;;;;;12.27;64.17;101619.75;5108256;27;20051;-83
2022/05/04 07:02:37;;;;;;;25.50;8.63;;;;;;;12.58;62.29;101624.63;4981000;28;20029;-83
2022/05/04 07:05:05;;;;;;;19.63;7.68;;;;;;;13.15;60.71;101621.63;4990130;28;20403;-83
2022/05/04 07:07:31;;;;;;;28.08;8.73;;;;;;;13.59;59.01;101618.16;5007038;28;20022;-83
2022/05/04 07:09:58;;;;;;;24.65;7.82;;;;;;;14.02;57.30;101611.97;4986935;28;20095;-84
2022/05/04 07:12:24;;;;;;;25.70;8.73;;;;;;;14.45;56.53;101619.72;4991983;28;20026;-84
2022/05/04 07:14:51;;;;;;;19.70;7.53;;;;;;;14.76;54.90;101613.88;5086753;28;20034;-83
2022/05/04 07:17:17;;;;;;;26.17;8.52;;;;;;;14.94;54.94;101622.34;4966928;28;20235;-84
2022/05/04 07:19:43;;;;;;;24.67;8.57;;;;;;;14.85;54.87;101622.53;5082719;28;20609;-84
2022/05/04 07:22:08;;;;;;;18.52;8.15;;;;;;;15.11;53.33;101615.31;5019409;28;20497;-83
2022/05/04 07:24:34;;;;;;;19.83;8.18;;;;;;;15.27;52.76;101622.28;4983133;28;20029;-83
2022/05/04 07:26:59;;;;;;;21.58;8.40;;;;;;;15.41;52.88;101615.59;5084512;28;20031;-84
2022/05/04 07:29:25;;;;;;;21.90;8.77;;;;;;;15.50;52.49;101621.59;4994085;28;20030;-84
2022/05/04 07:31:50;;;;;;;21.58;8.13;;;;;;;15.57;51.61;101617.31;4995668;28;20102;-84
2022/05/04 07:34:17;;;;;;;15.35;6.88;;;;;;;15.96;50.53;101617.34;4986853;28;20046;-83
2022/05/04 07:36:44;;;;;;;17.98;6.90;;;;;;;16.07;50.43;101618.75;4985940;28;20037;-83
2022/05/04 07:42:21;;;;;;;19.63;8.07;;;;;;;15.97;50.79;101612.91;4987621;28;20175;-82
2022/05/04 07:44:43;;;;;;;17.40;7.25;;;;;;;16.50;49.50;101616.50;5091466;28;20030;-83
2022/05/04 07:47:08;;;;;;;22.17;7.90;;;;;;;16.96;49.89;101612.22;5001779;28;20037;-83
2022/05/04 07:49:34;;;;;;;17.35;7.50;;;;;;;17.14;48.23;101617.97;4994921;28;20038;-83
2022/05/04 07:51:59;;;;;;;20.65;8.07;;;;;;;17.04;48.22;101612.16;4970816;28;20046;-83
2022/05/04 07:54:28;;;;;;;17.25;7.53;;;;;;;17.18;47.42;101613.97;4986883;28;20030;-83
2022/05/04 07:56:53;;;;;;;21.27;7.20;;;;;;;17.31;47.79;101616.78;4989024;28;20394;-82
2022/05/04 07:59:19;;;;;;;21.08;7.07;;;;;;;17.43;48.01;101618.94;4985793;28;20046;-83
2022/05/04 08:04:28;;;;;;;16.83;7.15;;;;;;;17.82;45.54;101616.00;4999774;28;20042;-83
2022/05/04 08:06:54;;;;;;;17.60;7.53;;;;;;;17.85;46.94;101610.41;4996993;28;20087;-80
2022/05/04 08:09:19;;;;;;;22.35;7.90;;;;;;;17.78;46.28;101619.16;4993620;28;20048;-83
2022/05/04 08:11:45;;;;;;;18.42;7.82;;;;;;;17.68;46.79;101616.84;4991395;28;20029;-82
2022/05/04 08:14:12;;;;;;;19.98;8.25;;;;;;;17.75;46.27;101620.38;4995670;28;20563;-83
2022/05/04 08:16:39;;;;;;;21.98;8.10;;;;;;;17.99;46.56;101616.63;5084334;28;20038;-82
2022/05/04 08:19:06;;;;;;;15.48;7.63;;;;;;;17.68;45.99;101622.09;4973941;28;20040;-83
2022/05/04 08:21:32;;;;;;;19.75;8.48;;;;;;;17.84;45.34;101614.06;4988523;28;20046;-83
2022/05/04 08:23:58;;;;;;;22.13;8.73;;;;;;;17.99;46.29;101613.19;4996808;28;20034;-82
2022/05/04 08:26:24;;;;;;;16.35;8.15;;;;;;;18.19;45.77;101621.28;4995370;28;20045;-83
2022/05/04 08:28:51;;;;;;;23.92;8.60;;;;;;;18.40;46.16;101616.03;5076903;28;20136;-83
2022/05/04 08:31:21;;;;;;;19.63;8.75;;;;;;;18.34;46.32;101610.72;5003623;28;20029;-81
2022/05/04 08:33:49;;;;;;;22.38;8.75;;;;;;;18.55;45.43;101607.28;4976033;28;20409;-82
2022/05/04 08:36:14;;;;;;;23.73;9.38;;;;;;;18.81;44.65;101618.00;5069944;28;20550;-81
2022/05/04 08:38:40;;;;;;;25.15;9.43;;;;;;;18.86;45.30;101617.47;5061964;28;20026;-80
2022/05/04 08:41:06;;;;;;;20.10;8.23;;;;;;;18.52;44.29;101620.78;5080474;28;20030;-81
2022/05/04 08:43:33;;;;;;;18.88;9.43;;;;;;;18.62;44.67;101622.06;4990585;28;20097;-80
2022/05/04 08:46:01;;;;;;;18.30;8.40;;;;;;;18.69;43.99;101624.78;5003326;28;20065;-82
2022/05/04 08:48:29;;;;;;;23.83;9.13;;;;;;;18.75;44.66;101621.38;4975387;28;20049;-82
2022/05/04 08:50:59;;;;;;;41.83;9.88;;;;;;;19.22;44.81;101621.72;5074492;28;20083;-80
2022/05/04 08:53:26;;;;;;;31.92;8.77;;;;;;;18.97;44.39;101619.56;5074754;28;20026;-80
2022/05/04 08:55:54;;;;;;;18.85;8.27;;;;;;;19.17;44.68;101619.66;4987913;28;20076;-82
2022/05/04 08:58:20;;;;;;;16.75;9.10;;;;;;;19.32;43.81;101618.75;4992298;28;20041;-82
2022/05/04 09:00:46;;;;;;;20.27;8.50;;;;;;;19.59;44.26;101606.53;4997566;28;20026;-80
2022/05/04 09:03:11;;;;;;;27.48;9.65;;;;;;;19.67;43.40;101610.84;4983385;28;20026;-81
2022/05/04 09:05:45;;;;;;;18.98;8.48;;;;;;;19.17;43.22;101609.16;5010430;28;20512;-81
2022/05/04 09:08:10;;;;;;;19.98;8.02;;;;;;;19.13;43.74;101602.66;4988954;28;20026;-81
2022/05/04 09:10:44;;;;;;;17.67;8.07;;;;;;;18.68;43.13;101607.38;4991147;28;20501;-84
2022/05/04 09:13:10;;;;;;;20.10;7.78;;;;;;;18.72;44.55;101607.81;4995795;28;20037;-82
2022/05/04 09:15:37;;;;;;;17.50;8.40;;;;;;;18.86;43.46;101610.38;4990575;28;20069;-83
2022/05/04 09:18:05;;;;;;;18.98;7.90;;;;;;;18.46;44.66;101609.22;5006413;28;20048;-82
2022/05/04 09:20:45;;;;;;;22.95;9.07;;;;;;;18.49;44.28;101608.84;4990342;28;20030;-81
2022/05/04 09:23:20;;;;;;;18.25;8.73;;;;;;;18.96;44.00;101609.22;5072939;28;20033;-82
2022/05/04 09:26:00;;;;;;;16.58;7.90;;;;;;;19.17;43.78;101598.63;4978254;28;20126;-81
2022/05/04 09:28:30;;;;;;;18.88;8.27;;;;;;;19.07;44.27;101608.69;4997629;28;20037;-81
2022/05/04 09:31:04;;;;;;;18.65;7.55;;;;;;;19.30;44.28;101597.91;4981585;28;20145;-82
2022/05/04 09:33:33;;;;;;;18.35;8.05;;;;;;;19.51;43.83;101604.88;4994220;28;20517;-82
2022/05/04 09:36:00;;;;;;;19.38;8.25;;;;;;;19.40;43.66;101602.81;5017838;28;20042;-82
2022/05/04 09:46:52;;;;;;;20.65;8.20;;;;;;;19.79;44.50;101601.38;5009464;28;20505;-82
2022/05/04 09:49:27;;;;;;;14.63;7.68;;;;;;;19.80;43.08;101597.75;4991355;28;20405;-82
2022/05/04 09:51:54;;;;;;;18.33;8.00;;;;;;;19.77;42.10;101600.75;5003294;28;20029;-81
2022/05/04 09:54:22;;;;;;;15.70;8.30;;;;;;;19.43;42.51;101597.16;5088127;27;20037;-82
2022/05/04 09:56:53;;;;;;;16.90;8.70;;;;;;;19.56;43.27;101596.41;4989531;28;20074;-82
2022/05/04 09:59:21;;;;;;;22.17;8.23;;;;;;;19.18;42.80;101602.91;4990555;28;20041;-81
2022/05/04 10:01:48;;;;;;;19.58;7.57;;;;;;;19.18;43.54;101592.38;4975757;28;20042;-83
2022/05/04 10:04:15;;;;;;;19.15;8.68;;;;;;;19.14;43.36;101599.03;5074687;28;20039;-82
2022/05/04 10:06:41;;;;;;;14.32;7.68;;;;;;;18.98;44.00;101597.50;5014194;28;20048;-82
2022/05/04 10:09:07;;;;;;;16.17;7.80;;;;;;;19.13;43.20;101596.59;5001096;28;20030;-83
2022/05/04 10:11:34;;;;;;;21.90;9.07;;;;;;;19.50;44.24;101584.88;5005507;28;20485;-81
2022/05/04 10:14:04;;;;;;;18.60;7.28;;;;;;;19.96;42.71;101591.31;5011646;28;20042;-81
2022/05/04 10:16:39;;;;;;;17.27;8.45;;;;;;;20.03;42.37;101592.13;4994033;28;20065;-81
2022/05/04 10:19:08;;;;;;;21.75;8.77;;;;;;;19.74;40.79;101578.31;4994156;28;20034;-82
2022/05/04 10:21:34;;;;;;;14.98;7.18;;;;;;;19.66;42.07;101586.31;5086930;27;20029;-81
2022/05/04 10:24:07;;;;;;;14.13;7.45;;;;;;;19.45;43.04;101584.63;4993744;28;20038;-81
2022/05/04 10:26:37;;;;;;;;;;;;;;;18.99;43.56;101588.63;5086823;27;20486;-82
2022/05/04 10:32:10;;;;;;;18.63;7.10;;;;;;;18.68;44.23;101583.72;5083615;28;20030;-81
2022/05/04 10:34:42;;;;;;;17.75;7.82;;;;;;;18.99;44.86;101582.56;4992432;28;20042;-82
2022/05/04 10:37:08;;;;;;;17.77;7.20;;;;;;;19.32;45.47;101574.06;5001922;28;20033;-82
2022/05/04 10:39:34;;;;;;;13.55;6.95;;;;;;;19.77;42.65;101570.00;4986904;28;20033;-83
2022/05/04 10:42:01;;;;;;;23.10;8.07;;;;;;;19.90;41.24;101573.69;5095897;27;21237;-82
2022/05/04 10:45:12;;;;;;;14.88;7.47;;;;;;;19.64;40.06;101580.44;4992185;28;20033;-81
2022/05/04 10:47:40;;;;;;;17.27;7.63;;;;;;;19.02;41.03;101582.19;5022945;28;20647;-81
2022/05/04 10:50:06;;;;;;;11.85;6.05;;;;;;;19.13;40.97;101578.22;5010123;28;20411;-82
2022/05/04 10:52:32;;;;;;;13.52;6.18;;;;;;;19.25;42.24;101582.72;4991959;28;20044;-81
2022/05/04 10:55:02;;;;;;;11.63;6.70;;;;;;;19.60;40.39;101574.78;5015701;28;20720;-81
2022/05/04 10:57:43;;;;;;;18.92;7.85;;;;;;;19.67;41.09;101585.31;5087385;27;20554;-81
2022/05/04 11:00:10;;;;;;;21.85;7.53;;;;;;;19.71;41.87;101572.59;5086092;27;20029;-84
2022/05/04 11:02:42;;;;;;;18.55;7.30;;;;;;;19.80;42.80;101574.06;5008514;28;20060;-82
2022/05/04 11:05:13;;;;;;;14.40;6.87;;;;;;;19.48;41.59;101571.09;4986411;28;20444;-81
2022/05/04 11:07:38;;;;;;;15.02;6.95;;;;;;;19.89;40.31;101567.63;5000889;28;20038;-83
2022/05/04 11:10:04;;;;;;;15.65;7.45;;;;;;;19.20;38.75;101560.66;4999483;28;20038;-82
2022/05/04 11:12:38;;;;;;;14.13;7.57;;;;;;;19.21;41.44;101562.25;4970799;28;20040;-82
2022/05/04 11:15:04;;;;;;;12.60;6.30;;;;;;;19.35;39.88;101560.53;4992252;28;20045;-82
2022/05/04 11:17:32;;;;;;;19.30;6.45;;;;;;;19.49;40.16;101559.56;5008624;28;20703;-81
2022/05/04 11:19:57;;;;;;;11.50;5.90;;;;;;;19.39;41.13;101559.13;5071171;28;20034;-81
2022/05/04 11:22:23;;;;;;;12.20;6.82;;;;;;;19.62;40.75;101553.53;5088180;28;20076;-82
2022/05/04 11:24:49;;;;;;;15.00;6.18;;;;;;;19.62;41.12;101548.28;4990177;28;20117;-82
2022/05/04 11:27:16;;;;;;;13.80;6.15;;;;;;;19.69;40.26;101553.56;5011345;28;20122;-81
2022/05/04 11:29:44;;;;;;;15.95;6.97;;;;;;;19.94;37.66;101541.50;4978569;28;20112;-82
2022/05/04 11:32:13;;;;;;;12.68;6.25;;;;;;;20.04;40.72;101546.34;4976157;28;20621;-81
2022/05/04 11:34:40;;;;;;;20.35;8.00;;;;;;;20.07;38.32;101540.69;5023433;28;20038;-83
2022/05/04 11:37:11;;;;;;;13.13;6.32;;;;;;;19.79;39.28;101536.41;4992550;28;20062;-81
2022/05/04 11:39:38;;;;;;;14.82;6.57;;;;;;;19.98;38.97;101536.63;4980314;28;20471;-81
2022/05/04 11:42:07;;;;;;;11.32;6.35;;;;;;;19.88;39.90;101537.03;5091613;28;20077;-81
2022/05/04 11:44:34;;;;;;;19.25;7.50;;;;;;;19.72;39.01;101532.09;5014886;28;20061;-82
2022/05/04 11:47:02;;;;;;;15.45;7.25;;;;;;;19.73;38.98;101528.50;4995290;28;20034;-82
2022/05/04 11:49:30;;;;;;;11.32;6.15;;;;;;;19.88;39.40;101530.97;5070713;28;20524;-83
2022/05/04 11:51:57;;;;;;;15.85;6.70;;;;;;;19.73;38.90;101524.06;5001592;28;20658;-81
2022/05/04 11:54:22;;;;;;;13.95;7.28;;;;;;;19.97;40.04;101517.41;5029174;28;20049;-81